createdAt,value
2018-08-06T00:00:27.751Z,73.46
2018-08-06T00:01:27.743Z,73.55
2018-08-06T00:02:27.733Z,73.65
2018-08-06T00:03:27.735Z,73.84
2018-08-06T00:04:27.708Z,73.94
2018-08-06T00:05:27.696Z,73.36
2018-08-06T00:06:27.687Z,74.09
2018-08-06T00:07:27.674Z,73.51
2018-08-06T00:08:27.677Z,73.22
2018-08-06T00:09:27.651Z,74.19
2018-08-06T00:10:27.640Z,74.38
2018-08-06T00:11:27.625Z,74.19
2018-08-06T00:12:27.616Z,74.38
2018-08-06T00:13:27.623Z,74.67
2018-08-06T00:14:27.594Z,74.76
2018-08-06T00:15:27.580Z,75.54
2018-08-06T00:16:27.572Z,75.44
2018-08-06T00:17:27.576Z,75.63
2018-08-06T00:18:27.562Z,75.15
2018-08-06T00:19:27.534Z,75.73
2018-08-06T00:20:27.530Z,74.67
2018-08-06T00:21:27.514Z,74.57
2018-08-06T00:22:27.503Z,74.09
2018-08-06T00:23:27.493Z,74.09
2018-08-06T00:24:27.494Z,74.19
2018-08-06T00:25:27.471Z,74.29
2018-08-06T00:26:27.457Z,74.67
2018-08-06T00:27:27.446Z,74.76
2018-08-06T00:28:27.452Z,74.96
2018-08-06T00:29:27.427Z,74.76
2018-08-06T00:30:27.412Z,75.05
2018-08-06T00:31:27.401Z,75.05
2018-08-06T00:32:27.389Z,74.96
2018-08-06T00:33:27.378Z,75.34
2018-08-06T00:34:27.393Z,75.79
2018-08-06T00:35:27.356Z,75.59
2018-08-06T00:36:27.346Z,75.88
2018-08-06T00:37:27.341Z,75.59
2018-08-06T00:38:27.322Z,75.98
2018-08-06T00:39:27.313Z,76.65
2018-08-06T00:40:27.313Z,77.42
2018-08-06T00:41:27.287Z,77.13
2018-08-06T00:42:27.279Z,77.61
2018-08-06T00:43:27.265Z,77.96
2018-08-06T00:44:27.252Z,78.38
2018-08-06T00:45:27.293Z,78.34
2018-08-06T00:46:27.245Z,78.83
2018-08-06T00:47:27.216Z,78.73
2018-08-06T00:48:27.207Z,78.53
2018-08-06T00:49:27.195Z,78.73
2018-08-06T00:50:27.185Z,78.53
2018-08-06T00:51:27.191Z,78.25
2018-08-06T00:52:27.166Z,78.15
2018-08-06T00:53:27.148Z,78.15
2018-08-06T00:54:27.137Z,78.73
2018-08-06T00:55:27.123Z,78.83
2018-08-06T00:56:27.133Z,78.63
2018-08-06T00:57:27.103Z,79.21
2018-08-06T00:58:27.088Z,79.11
2018-08-06T00:59:27.080Z,78.92
2018-08-06T01:00:27.070Z,79.88
2018-08-06T01:01:27.058Z,80.46
2018-08-06T01:02:27.069Z,80.65
2018-08-06T01:03:27.031Z,80.46
2018-08-06T01:04:27.027Z,81.23
2018-08-06T01:05:27.005Z,81.23
2018-08-06T01:06:26.997Z,81.13
2018-08-06T01:07:26.987Z,80.84
2018-08-06T01:08:26.990Z,80.94
2018-08-06T01:09:26.960Z,80.84
2018-08-06T01:10:26.949Z,81.04
2018-08-06T01:11:26.942Z,80.65
2018-08-06T01:12:26.939Z,81.52
2018-08-06T01:13:26.916Z,81.86
2018-08-06T01:14:26.910Z,81.86
2018-08-06T01:15:26.890Z,82.34
2018-08-06T01:16:26.896Z,82.34
2018-08-06T01:17:26.865Z,81.96
2018-08-06T01:18:26.856Z,82.43
2018-08-06T01:19:26.843Z,82.92
2018-08-06T01:20:26.833Z,82.63
2018-08-06T01:21:26.836Z,83.20
2018-08-06T01:22:26.808Z,83.97
2018-08-06T01:23:26.807Z,83.87
2018-08-06T01:24:26.789Z,82.92
2018-08-06T01:25:26.772Z,83.11
2018-08-06T01:26:26.773Z,82.43
2018-08-06T01:27:26.748Z,82.63
2018-08-06T01:28:26.746Z,82.53
2018-08-06T01:29:26.738Z,82.05
2018-08-06T01:30:26.718Z,81.86
2018-08-06T01:31:26.703Z,81.67
2018-08-06T01:32:26.693Z,81.38
2018-08-06T01:33:26.693Z,81.04
2018-08-06T01:34:26.668Z,80.27
2018-08-06T01:35:26.651Z,80.36
2018-08-06T01:36:26.643Z,79.69
2018-08-06T01:37:26.634Z,79.30
2018-08-06T01:38:26.629Z,79.60
2018-08-06T01:39:26.608Z,79.02
2018-08-06T01:40:26.636Z,79.30
2018-08-06T01:41:26.583Z,79.21
2018-08-06T01:42:26.571Z,79.21
2018-08-06T01:43:26.572Z,79.11
2018-08-06T01:44:26.552Z,78.83
2018-08-06T01:45:26.536Z,79.21
2018-08-06T01:46:26.526Z,78.53
2018-08-06T01:47:26.511Z,78.77
2018-08-06T01:48:26.518Z,79.11
2018-08-06T01:49:26.493Z,79.05
2018-08-06T01:50:26.478Z,79.44
2018-08-06T01:51:26.467Z,79.30
2018-08-06T01:52:26.453Z,79.79
2018-08-06T01:53:26.442Z,79.21
2018-08-06T01:54:26.443Z,79.30
2018-08-06T01:55:26.414Z,79.60
2018-08-06T01:56:26.421Z,78.83
2018-08-06T01:57:26.395Z,80.27
2018-08-06T01:58:26.382Z,79.40
2018-08-06T01:59:47.396Z,80.94
2018-08-06T02:00:26.358Z,80.17
2018-08-06T02:01:26.357Z,81.42
2018-08-06T02:02:26.332Z,81.61
2018-08-06T02:03:26.317Z,80.27
2018-08-06T02:04:26.312Z,81.32
2018-08-06T02:05:26.313Z,80.46
2018-08-06T02:06:26.284Z,80.84
2018-08-06T02:07:26.273Z,82.19
2018-08-06T02:08:26.262Z,82.57
2018-08-06T02:09:26.252Z,82.96
2018-08-06T02:10:26.256Z,83.30
2018-08-06T02:11:26.225Z,83.20
2018-08-06T02:12:26.215Z,83.11
2018-08-06T02:13:26.201Z,83.20
2018-08-06T02:14:26.195Z,83.59
2018-08-06T02:15:26.193Z,83.97
2018-08-06T02:16:26.169Z,84.26
2018-08-06T02:17:26.155Z,83.69
2018-08-06T02:18:26.151Z,83.26
2018-08-06T02:19:26.128Z,84.22
2018-08-06T02:20:26.134Z,84.22
2018-08-06T02:21:26.108Z,84.41
2018-08-06T02:22:26.096Z,84.70
2018-08-06T02:23:26.080Z,84.60
2018-08-06T02:24:26.069Z,84.70
2018-08-06T02:25:26.058Z,85.37
2018-08-06T02:26:26.058Z,86.52
2018-08-06T02:27:26.033Z,85.66
2018-08-06T02:28:26.023Z,85.57
2018-08-06T02:29:26.013Z,84.99
2018-08-06T02:30:26.004Z,84.99
2018-08-06T02:31:25.998Z,85.37
2018-08-06T02:32:25.972Z,85.47
2018-08-06T02:33:25.962Z,85.08
2018-08-06T02:34:25.946Z,84.51
2018-08-06T02:35:25.950Z,84.41
2018-08-06T02:36:25.941Z,84.41
2018-08-06T02:37:25.910Z,84.51
2018-08-06T02:38:25.899Z,84.41
2018-08-06T02:39:25.886Z,84.80
2018-08-06T02:40:25.878Z,83.93
2018-08-06T02:41:25.882Z,84.03
2018-08-06T02:42:25.852Z,84.12
2018-08-06T02:43:25.838Z,84.03
2018-08-06T02:44:25.831Z,84.36
2018-08-06T02:45:25.814Z,83.74
2018-08-06T02:46:25.803Z,83.97
2018-08-06T02:47:25.806Z,84.31
2018-08-06T02:48:25.779Z,84.17
2018-08-06T02:49:25.763Z,84.55
2018-08-06T02:50:25.752Z,84.41
2018-08-06T02:51:25.741Z,84.70
2018-08-06T02:52:25.729Z,84.55
2018-08-06T02:53:25.732Z,84.70
2018-08-06T02:54:25.707Z,84.80
2018-08-06T02:55:25.691Z,84.80
2018-08-06T02:56:25.683Z,84.80
2018-08-06T02:57:25.685Z,84.89
2018-08-06T02:58:25.672Z,84.99
2018-08-06T02:59:25.647Z,84.99
2018-08-06T03:00:25.635Z,84.89
2018-08-06T03:01:25.620Z,84.99
2018-08-06T03:02:25.607Z,85.47
2018-08-06T03:03:25.611Z,85.28
2018-08-06T03:04:25.582Z,85.08
2018-08-06T03:05:25.570Z,85.18
2018-08-06T03:06:25.556Z,84.99
2018-08-06T03:07:25.545Z,85.85
2018-08-06T03:08:25.548Z,85.95
2018-08-06T03:09:25.521Z,85.85
2018-08-06T03:10:25.522Z,85.95
2018-08-06T03:11:25.492Z,86.14
2018-08-06T03:12:25.488Z,87.19
2018-08-06T03:13:25.473Z,87.01
2018-08-06T03:14:25.455Z,86.72
2018-08-06T03:15:25.470Z,86.52
2018-08-06T03:16:25.435Z,86.33
2018-08-06T03:17:25.422Z,86.81
2018-08-06T03:18:25.410Z,87.29
2018-08-06T03:19:25.398Z,86.81
2018-08-06T03:20:25.388Z,87.96
2018-08-06T03:21:25.387Z,87.01
2018-08-06T03:22:25.359Z,87.58
2018-08-06T03:23:25.349Z,87.96
2018-08-06T03:24:25.338Z,89.22
2018-08-06T03:25:25.338Z,89.02
2018-08-06T03:26:25.313Z,88.25
2018-08-06T03:27:25.296Z,88.64
2018-08-06T03:28:25.288Z,89.02
2018-08-06T03:29:25.269Z,88.64
2018-08-06T03:30:46.273Z,89.12
2018-08-06T03:31:25.250Z,88.93
2018-08-06T03:32:25.237Z,89.84
2018-08-06T03:33:25.231Z,89.17
2018-08-06T03:34:25.214Z,89.36
2018-08-06T03:35:25.202Z,89.84
2018-08-06T03:36:25.205Z,90.32
2018-08-06T03:37:25.178Z,90.13
2018-08-06T03:38:25.159Z,90.52
2018-08-06T03:39:25.151Z,90.32
2018-08-06T03:40:25.155Z,90.61
2018-08-06T03:41:25.126Z,91.28
2018-08-06T03:42:25.132Z,91.28
2018-08-06T03:43:25.103Z,92.05
2018-08-06T03:44:25.084Z,92.72
2018-08-06T03:45:25.074Z,92.53
2018-08-06T03:46:25.083Z,92.39
2018-08-06T03:47:25.065Z,92.96
2018-08-06T03:48:25.039Z,93.06
2018-08-06T03:49:25.025Z,93.54
2018-08-06T03:50:25.016Z,93.87
2018-08-06T03:51:25.010Z,94.21
2018-08-06T03:52:25.004Z,95.07
2018-08-06T03:53:24.978Z,94.40
2018-08-06T03:54:24.966Z,94.69
2018-08-06T03:55:24.953Z,94.40
2018-08-06T03:56:24.952Z,95.46
2018-08-06T03:57:24.922Z,95.36
2018-08-06T03:58:24.922Z,95.26
2018-08-06T03:59:24.901Z,95.46
2018-08-06T04:00:24.886Z,94.98
2018-08-06T04:01:24.873Z,94.40
2018-08-06T04:02:24.860Z,96.03
2018-08-06T04:03:24.862Z,95.36
2018-08-06T04:04:24.839Z,95.17
2018-08-06T04:05:24.827Z,95.46
2018-08-06T04:06:24.807Z,95.17
2018-08-06T04:07:24.797Z,95.17
2018-08-06T04:08:24.798Z,96.51
2018-08-06T04:09:24.774Z,95.65
2018-08-06T04:10:24.758Z,95.94
2018-08-06T04:11:24.747Z,96.51
2018-08-06T04:12:24.744Z,96.13
2018-08-06T04:13:24.757Z,96.22
2018-08-06T04:14:24.704Z,96.51
2018-08-06T04:15:24.701Z,96.13
2018-08-06T04:16:24.682Z,96.42
2018-08-06T04:17:24.669Z,96.80
2018-08-06T04:18:24.654Z,95.07
2018-08-06T04:19:24.658Z,94.69
2018-08-06T04:20:24.631Z,95.36
2018-08-06T04:21:24.620Z,95.17
2018-08-06T04:22:24.605Z,95.75
2018-08-06T04:23:24.609Z,95.46
2018-08-06T04:24:24.581Z,94.88
2018-08-06T04:25:24.567Z,95.07
2018-08-06T04:26:24.554Z,95.17
2018-08-06T04:27:24.542Z,95.46
2018-08-06T04:28:24.543Z,95.31
2018-08-06T04:29:24.533Z,94.83
2018-08-06T04:30:24.503Z,94.54
2018-08-06T04:31:24.491Z,94.35
2018-08-06T04:32:24.478Z,93.68
2018-08-06T04:33:24.479Z,91.66
2018-08-06T04:34:24.452Z,90.52
2018-08-06T04:35:24.455Z,89.69
2018-08-06T04:36:24.425Z,89.12
2018-08-06T04:37:24.415Z,89.02
2018-08-06T04:38:24.438Z,87.82
2018-08-06T04:39:24.387Z,87.92
2018-08-06T04:40:24.390Z,87.92
2018-08-06T04:41:24.366Z,86.66
2018-08-06T04:42:24.354Z,86.61
2018-08-06T04:43:24.341Z,86.22
2018-08-06T04:44:24.343Z,86.99
2018-08-06T04:45:24.331Z,86.71
2018-08-06T04:46:24.307Z,84.50
2018-08-06T04:47:24.293Z,84.78
2018-08-06T04:48:24.291Z,84.44
2018-08-06T04:49:24.271Z,83.86
2018-08-06T04:50:24.271Z,81.94
2018-08-06T04:51:24.244Z,82.81
2018-08-06T04:52:24.731Z,82.67
2018-08-06T04:53:24.220Z,83.48
2018-08-06T04:54:24.210Z,83.25
2018-08-06T04:55:24.211Z,83.25
2018-08-06T04:56:24.186Z,84.40
2018-08-06T04:57:24.171Z,84.59
2018-08-06T04:58:24.171Z,84.98
2018-08-06T04:59:24.145Z,85.51
2018-08-06T05:00:24.134Z,86.52
2018-08-06T05:01:24.140Z,87.57
2018-08-06T05:02:24.113Z,87.72
2018-08-06T05:03:24.110Z,87.92
2018-08-06T05:04:24.094Z,88.01
2018-08-06T05:05:24.088Z,88.78
2018-08-06T05:06:24.090Z,88.97
2018-08-06T05:07:24.046Z,88.97
2018-08-06T05:08:24.040Z,89.26
2018-08-06T05:09:24.026Z,89.64
2018-08-06T05:10:24.016Z,88.10
2018-08-06T05:11:24.016Z,88.01
2018-08-06T05:12:23.991Z,88.01
2018-08-06T05:13:23.976Z,89.54
2018-08-06T05:14:23.967Z,90.03
2018-08-06T05:15:23.962Z,90.22
2018-08-06T05:16:23.951Z,88.39
2018-08-06T05:17:24.286Z,88.53
2018-08-06T05:18:23.917Z,88.20
2018-08-06T05:19:23.923Z,86.90
2018-08-06T05:20:23.897Z,85.17
2018-08-06T05:21:23.893Z,84.98
2018-08-06T05:22:23.894Z,85.27
2018-08-06T05:23:23.857Z,84.54
2018-08-06T05:24:23.902Z,83.39
2018-08-06T05:25:23.832Z,82.52
2018-08-06T05:26:23.821Z,82.14
2018-08-06T05:27:23.814Z,83.48
2018-08-06T05:28:23.814Z,83.86
2018-08-06T05:29:23.785Z,83.33
2018-08-06T05:30:23.772Z,79.38
2018-08-06T05:31:23.764Z,79.19
2018-08-06T05:32:23.753Z,78.81
2018-08-06T05:33:23.754Z,78.08
2018-08-06T05:34:23.722Z,76.92
2018-08-06T05:35:23.711Z,77.53
2018-08-06T05:36:23.704Z,76.28
2018-08-06T05:37:23.698Z,75.80
2018-08-06T05:38:23.675Z,74.88
2018-08-06T05:39:23.686Z,74.58
2018-08-06T05:40:23.657Z,73.91
2018-08-06T05:41:23.648Z,72.66
2018-08-06T05:42:23.663Z,72.50
2018-08-06T05:43:23.648Z,70.57
2018-08-06T05:44:23.616Z,70.22
2018-08-06T05:45:23.613Z,70.03
2018-08-06T05:46:23.589Z,69.84
2018-08-06T05:47:23.581Z,69.74
2018-08-06T05:48:24.194Z,69.35
2018-08-06T05:49:23.575Z,68.23
2018-08-06T05:50:23.545Z,67.75
2018-08-06T05:51:23.830Z,66.59
2018-08-06T05:52:27.406Z,66.40
2018-08-06T05:53:23.514Z,66.01
2018-08-06T05:54:23.518Z,65.82
2018-08-06T05:55:23.494Z,65.91
2018-08-06T05:56:23.482Z,66.01
2018-08-06T05:57:23.691Z,65.34
2018-08-06T05:58:23.494Z,64.95
2018-08-06T05:59:23.465Z,65.17
2018-08-06T06:00:23.451Z,65.17
2018-08-06T06:01:23.425Z,64.59
2018-08-06T06:02:23.421Z,64.11
2018-08-06T06:03:23.461Z,64.11
2018-08-06T06:04:23.389Z,64.24
2018-08-06T06:05:23.399Z,64.34
2018-08-06T06:06:23.385Z,64.24
2018-08-06T06:07:23.360Z,63.56
2018-08-06T06:08:23.347Z,63.95
2018-08-06T06:09:23.341Z,63.56
2018-08-06T06:10:23.349Z,62.79
2018-08-06T06:11:23.316Z,62.70
2018-08-06T06:12:23.311Z,62.50
2018-08-06T06:13:23.294Z,62.21
2018-08-06T06:14:23.282Z,62.60
2018-08-06T06:15:44.289Z,62.15
2018-08-06T06:16:23.271Z,62.24
2018-08-06T06:17:23.252Z,61.95
2018-08-06T06:18:23.238Z,61.95
2018-08-06T06:19:23.224Z,61.66
2018-08-06T06:20:23.223Z,62.40
2018-08-06T06:21:23.223Z,61.95
2018-08-06T06:22:23.560Z,62.21
2018-08-06T06:23:23.276Z,62.12
2018-08-06T06:24:23.194Z,62.31
2018-08-06T06:25:23.188Z,62.50
2018-08-06T06:26:23.176Z,62.21
2018-08-06T06:27:23.150Z,62.50
2018-08-06T06:28:23.142Z,62.40
2018-08-06T06:29:23.135Z,62.73
2018-08-06T06:30:23.114Z,61.57
2018-08-06T06:31:23.126Z,61.76
2018-08-06T06:32:23.099Z,61.08
2018-08-06T06:33:23.100Z,60.44
2018-08-06T06:34:23.101Z,60.24
2018-08-06T06:35:23.069Z,60.24
2018-08-06T06:36:23.069Z,60.34
2018-08-06T06:37:23.070Z,60.63
2018-08-06T06:38:23.032Z,60.44
2018-08-06T06:39:23.023Z,59.59
2018-08-06T06:40:23.023Z,59.69
2018-08-06T06:41:23.000Z,59.31
2018-08-06T06:42:22.988Z,59.79
2018-08-06T06:43:22.997Z,59.31
2018-08-06T06:44:22.987Z,58.72
2018-08-06T06:45:22.957Z,58.82
2018-08-06T06:46:22.950Z,58.72
2018-08-06T06:47:22.937Z,59.01
2018-08-06T06:48:22.946Z,58.53
2018-08-06T06:49:22.921Z,57.95
2018-08-06T06:50:22.907Z,57.86
2018-08-06T06:51:22.896Z,57.46
2018-08-06T06:52:22.889Z,57.28
2018-08-06T06:53:22.876Z,57.08
2018-08-06T06:54:22.941Z,56.98
2018-08-06T06:55:22.854Z,57.18
2018-08-06T06:56:22.845Z,57.08
2018-08-06T06:57:22.839Z,56.98
2018-08-06T06:58:22.827Z,57.86
2018-08-06T06:59:22.833Z,57.18
2018-08-06T07:00:22.804Z,57.18
2018-08-06T07:01:22.789Z,56.40
2018-08-06T07:02:22.781Z,56.30
2018-08-06T07:03:22.775Z,55.82
2018-08-06T07:04:22.783Z,55.82
2018-08-06T07:05:22.750Z,55.53
2018-08-06T07:06:22.751Z,56.21
2018-08-06T07:07:22.733Z,56.37
2018-08-06T07:08:22.782Z,57.24
2018-08-06T07:09:22.716Z,56.76
2018-08-06T07:10:22.718Z,56.28
2018-08-06T07:11:22.689Z,57.05
2018-08-06T07:12:22.683Z,57.44
2018-08-06T07:13:22.671Z,56.98
2018-08-06T07:14:22.656Z,56.40
2018-08-06T07:15:22.649Z,56.02
2018-08-06T07:16:22.651Z,56.02
2018-08-06T07:17:22.630Z,56.88
2018-08-06T07:18:22.618Z,56.11
2018-08-06T07:19:22.610Z,57.08
2018-08-06T07:20:22.644Z,56.60
2018-08-06T07:21:22.589Z,56.24
2018-08-06T07:22:22.576Z,55.76
2018-08-06T07:23:22.569Z,54.98
2018-08-06T07:24:22.555Z,54.98
2018-08-06T07:25:22.564Z,54.71
2018-08-06T07:26:22.550Z,54.13
2018-08-06T07:27:22.527Z,53.75
2018-08-06T07:28:22.541Z,53.36
2018-08-06T07:29:22.508Z,53.87
2018-08-06T07:30:22.499Z,53.77
2018-08-06T07:31:22.501Z,53.00
2018-08-06T07:32:22.475Z,53.00
2018-08-06T07:33:22.467Z,53.09
2018-08-06T07:34:22.458Z,52.90
2018-08-06T07:35:22.452Z,53.29
2018-08-06T07:36:22.449Z,52.90
2018-08-06T07:37:22.428Z,53.09
2018-08-06T07:38:22.417Z,53.58
2018-08-06T07:39:22.410Z,52.80
2018-08-06T07:40:22.399Z,53.67
2018-08-06T07:41:22.400Z,53.19
2018-08-06T07:42:22.375Z,53.19
2018-08-06T07:43:22.380Z,52.90
2018-08-06T07:44:22.357Z,53.12
2018-08-06T07:45:22.348Z,52.83
2018-08-06T07:46:22.349Z,53.02
2018-08-06T07:47:22.330Z,52.73
2018-08-06T07:48:22.327Z,51.37
2018-08-06T07:49:22.314Z,51.76
2018-08-06T07:50:22.312Z,52.06
2018-08-06T07:51:22.287Z,52.03
2018-08-06T07:52:22.277Z,52.42
2018-08-06T07:53:22.292Z,52.42
2018-08-06T07:54:22.258Z,52.90
2018-08-06T07:55:22.248Z,52.90
2018-08-06T07:56:22.235Z,52.71
2018-08-06T07:57:22.232Z,52.32
2018-08-06T07:58:22.245Z,53.00
2018-08-06T07:59:22.225Z,53.09
2018-08-06T08:00:22.203Z,52.64
2018-08-06T08:01:22.192Z,52.83
2018-08-06T08:02:22.182Z,52.15
2018-08-06T08:03:22.171Z,51.47
2018-08-06T08:04:22.177Z,51.47
2018-08-06T08:05:22.152Z,51.31
2018-08-06T08:06:22.166Z,50.82
2018-08-06T08:07:22.133Z,51.31
2018-08-06T08:08:22.133Z,51.01
2018-08-06T08:09:22.113Z,51.01
2018-08-06T08:10:22.102Z,51.04
2018-08-06T08:11:22.092Z,50.62
2018-08-06T08:12:22.082Z,50.34
2018-08-06T08:13:22.085Z,51.14
2018-08-06T08:14:22.085Z,50.46
2018-08-06T08:15:22.053Z,50.16
2018-08-06T08:16:22.047Z,49.97
2018-08-06T08:17:22.037Z,49.90
2018-08-06T08:18:22.023Z,49.12
2018-08-06T08:19:22.050Z,49.12
2018-08-06T08:20:22.159Z,49.02
2018-08-06T08:21:21.995Z,49.02
2018-08-06T08:22:21.990Z,48.93
2018-08-06T08:23:21.985Z,49.12
2018-08-06T08:24:21.982Z,49.90
2018-08-06T08:25:21.960Z,49.54
2018-08-06T08:26:21.950Z,49.92
2018-08-06T08:27:21.944Z,48.97
2018-08-06T08:28:21.938Z,48.68
2018-08-06T08:29:21.937Z,48.10
2018-08-06T08:30:21.914Z,48.78
2018-08-06T08:31:21.900Z,47.69
2018-08-06T08:32:21.898Z,48.57
2018-08-06T08:33:21.884Z,48.88
2018-08-06T08:34:21.873Z,48.88
2018-08-06T08:35:21.879Z,48.10
2018-08-06T08:36:21.853Z,47.03
2018-08-06T08:37:21.849Z,47.42
2018-08-06T08:38:21.834Z,47.03
2018-08-06T08:39:21.829Z,47.52
2018-08-06T08:40:21.852Z,47.61
2018-08-06T08:41:21.813Z,47.44
2018-08-06T08:42:21.798Z,47.34
2018-08-06T08:43:21.792Z,46.98
2018-08-06T08:44:21.784Z,47.08
2018-08-06T08:45:21.776Z,46.98
2018-08-06T08:46:21.782Z,47.27
2018-08-06T08:47:21.759Z,46.59
2018-08-06T08:48:21.752Z,46.69
2018-08-06T08:49:21.737Z,46.78
2018-08-06T08:50:21.730Z,46.78
2018-08-06T08:51:21.753Z,47.00
2018-08-06T08:52:21.744Z,46.23
2018-08-06T08:53:21.723Z,45.42
2018-08-06T08:54:21.700Z,45.60
2018-08-06T08:55:21.687Z,46.57
2018-08-06T08:56:21.698Z,46.69
2018-08-06T08:57:21.671Z,46.01
2018-08-06T08:58:21.660Z,45.54
2018-08-06T08:59:21.654Z,44.89
2018-08-06T09:00:21.644Z,44.89
2018-08-06T09:01:21.634Z,43.85
2018-08-06T09:02:21.640Z,43.57
2018-08-06T09:03:21.638Z,43.29
2018-08-06T09:04:21.623Z,42.05
2018-08-06T09:05:21.603Z,41.67
2018-08-06T09:06:21.593Z,40.72
2018-08-06T09:07:21.639Z,39.57
2018-08-06T09:08:21.576Z,39.37
2018-08-06T09:09:21.568Z,39.94
2018-08-06T09:10:21.570Z,39.94
2018-08-06T09:11:21.550Z,39.28
2018-08-06T09:12:21.545Z,39.29
2018-08-06T09:13:21.537Z,38.53
2018-08-06T09:14:21.545Z,37.88
2018-08-06T09:15:21.514Z,37.02
2018-08-06T09:16:21.514Z,36.06
2018-08-06T09:17:21.505Z,35.78
2018-08-06T09:18:21.496Z,35.39
2018-08-06T09:19:21.499Z,35.68
2018-08-06T09:20:21.480Z,35.10
2018-08-06T09:21:21.527Z,35.11
2018-08-06T09:22:21.463Z,35.27
2018-08-06T09:23:21.459Z,35.76
2018-08-06T09:24:21.464Z,35.37
2018-08-06T09:25:21.441Z,35.85
2018-08-06T09:26:21.432Z,36.25
2018-08-06T09:27:21.428Z,35.21
2018-08-06T09:28:21.422Z,35.02
2018-08-06T09:29:21.431Z,34.72
2018-08-06T09:30:21.416Z,35.37
2018-08-06T09:31:21.399Z,35.31
2018-08-06T09:32:21.396Z,35.88
2018-08-06T09:33:21.393Z,35.23
2018-08-06T09:34:21.385Z,33.80
2018-08-06T09:35:21.389Z,33.49
2018-08-06T09:36:21.368Z,34.03
2018-08-06T09:37:21.367Z,35.10
2018-08-06T09:38:21.363Z,35.19
2018-08-06T09:39:21.354Z,34.72
2018-08-06T09:40:21.449Z,34.92
2018-08-06T09:41:21.365Z,34.90
2018-08-06T09:42:21.349Z,35.19
2018-08-06T09:43:21.343Z,36.04
2018-08-06T09:44:21.342Z,37.00
2018-08-06T09:45:21.340Z,36.82
2018-08-06T09:46:21.340Z,36.29
2018-08-06T09:47:21.358Z,35.99
2018-08-06T09:48:21.332Z,36.09
2018-08-06T09:49:21.328Z,33.97
2018-08-06T09:50:21.336Z,33.20
2018-08-06T09:51:21.342Z,33.46
2018-08-06T09:52:21.323Z,34.36
2018-08-06T09:53:21.321Z,33.51
2018-08-06T09:54:21.316Z,33.74
2018-08-06T09:55:21.318Z,31.59
2018-08-06T09:56:21.317Z,31.10
2018-08-06T09:57:21.330Z,30.91
2018-08-06T09:58:21.317Z,30.80
2018-08-06T09:59:21.316Z,31.64
2018-08-06T10:00:21.312Z,32.14
2018-08-06T10:01:21.313Z,31.95
2018-08-06T10:02:21.330Z,31.59
2018-08-06T10:03:21.312Z,30.73
2018-08-06T10:04:21.312Z,30.32
2018-08-06T10:05:21.314Z,30.71
2018-08-06T10:06:21.544Z,30.82
2018-08-06T10:07:21.352Z,31.28
2018-08-06T10:08:21.325Z,31.85
2018-08-06T10:09:21.314Z,31.94
2018-08-06T10:10:21.319Z,32.33
2018-08-06T10:11:21.332Z,32.14
2018-08-06T10:12:21.313Z,32.12
2018-08-06T10:13:21.315Z,32.43
2018-08-06T10:14:21.317Z,32.59
2018-08-06T10:15:21.317Z,33.95
2018-08-06T10:16:21.316Z,34.52
2018-08-06T10:17:21.330Z,33.18
2018-08-06T10:18:21.311Z,32.62
2018-08-06T10:19:21.412Z,31.95
2018-08-06T10:20:21.335Z,33.02
2018-08-06T10:21:22.333Z,33.10
2018-08-06T10:22:21.335Z,33.58
2018-08-06T10:23:21.317Z,33.10
2018-08-06T10:24:21.320Z,33.08
2018-08-06T10:25:21.335Z,33.91
2018-08-06T10:26:21.319Z,32.93
2018-08-06T10:27:21.321Z,32.64
2018-08-06T10:28:21.322Z,32.89
2018-08-06T10:29:21.328Z,31.32
2018-08-06T10:30:21.418Z,30.62
2018-08-06T10:31:21.340Z,30.24
2018-08-06T10:32:21.328Z,30.60
2018-08-06T10:33:21.325Z,31.51
2018-08-06T10:34:21.328Z,31.98
2018-08-06T10:35:21.327Z,31.97
2018-08-06T10:36:21.332Z,31.20
2018-08-06T10:37:21.348Z,32.00
2018-08-06T10:38:21.333Z,31.70
2018-08-06T10:39:21.332Z,31.01
2018-08-06T10:40:21.357Z,31.72
2018-08-06T10:41:21.339Z,30.24
2018-08-06T10:42:21.350Z,30.73
2018-08-06T10:43:21.342Z,30.44
2018-08-06T10:44:21.356Z,31.10
2018-08-06T10:45:21.374Z,31.85
2018-08-06T10:46:21.343Z,32.15
2018-08-06T10:47:21.341Z,32.54
2018-08-06T10:48:21.428Z,32.76
2018-08-06T10:49:21.349Z,31.31
2018-08-06T10:50:21.351Z,31.14
2018-08-06T10:51:21.368Z,29.28
2018-08-06T10:52:21.368Z,29.19
2018-08-06T10:53:21.355Z,29.07
2018-08-06T10:54:21.370Z,28.99
2018-08-06T10:55:21.359Z,28.72
2018-08-06T10:56:21.359Z,29.14
2018-08-06T10:57:21.378Z,27.76
2018-08-06T10:58:21.363Z,26.48
2018-08-06T10:59:21.364Z,27.61
2018-08-06T11:00:21.365Z,27.61
2018-08-06T11:01:21.369Z,27.23
2018-08-06T11:02:21.381Z,27.15
2018-08-06T11:03:21.370Z,28.42
2018-08-06T11:04:21.383Z,27.73
2018-08-06T11:05:21.378Z,27.93
2018-08-06T11:06:21.382Z,28.99
2018-08-06T11:07:21.398Z,27.62
2018-08-06T11:08:21.410Z,27.34
2018-08-06T11:09:21.389Z,26.46
2018-08-06T11:10:21.391Z,27.33
2018-08-06T11:11:21.393Z,27.62
2018-08-06T11:12:21.396Z,26.73
2018-08-06T11:13:21.415Z,26.54
2018-08-06T11:14:21.444Z,27.61
2018-08-06T11:15:21.404Z,28.48
2018-08-06T11:16:21.408Z,27.92
2018-08-06T11:17:21.414Z,27.81
2018-08-06T11:18:21.430Z,29.28
2018-08-06T11:19:21.415Z,29.38
2018-08-06T11:20:21.427Z,30.38
2018-08-06T11:21:21.418Z,30.00
2018-08-06T11:22:21.421Z,26.66
2018-08-06T11:23:21.443Z,29.51
2018-08-06T11:24:21.433Z,30.06
2018-08-06T11:25:21.433Z,28.99
2018-08-06T11:26:21.441Z,29.09
2018-08-06T11:27:21.441Z,28.79
2018-08-06T11:28:21.505Z,28.52
2018-08-06T11:29:21.446Z,26.97
2018-08-06T11:30:21.450Z,27.96
2018-08-06T11:31:21.467Z,28.51
2018-08-06T11:32:21.451Z,29.39
2018-08-06T11:33:21.473Z,31.26
2018-08-06T11:34:21.461Z,31.17
2018-08-06T11:35:21.479Z,29.57
2018-08-06T11:36:21.482Z,30.32
2018-08-06T11:37:21.474Z,30.91
2018-08-06T11:38:21.472Z,29.55
2018-08-06T11:39:21.491Z,31.35
2018-08-06T11:40:21.550Z,30.00
2018-08-06T11:41:21.495Z,28.74
2018-08-06T11:42:21.515Z,28.62
2018-08-06T11:43:25.358Z,28.69
2018-08-06T11:44:27.372Z,26.82
2018-08-06T11:45:21.494Z,27.73
2018-08-06T11:46:21.495Z,28.80
2018-08-06T11:47:21.501Z,29.09
2018-08-06T11:48:21.517Z,28.38
2018-08-06T11:49:21.501Z,28.50
2018-08-06T11:50:21.509Z,30.09
2018-08-06T11:51:21.527Z,29.32
2018-08-06T11:52:21.527Z,26.26
2018-08-06T11:53:21.516Z,27.84
2018-08-06T11:54:21.520Z,27.56
2018-08-06T11:55:21.538Z,26.08
2018-08-06T11:56:21.542Z,26.66
2018-08-06T11:57:21.526Z,25.48
2018-08-06T11:58:21.540Z,26.48
2018-08-06T11:59:21.530Z,26.64
2018-08-06T12:00:21.531Z,28.26
2018-08-06T12:01:21.540Z,29.25
2018-08-06T12:02:21.554Z,29.33
2018-08-06T12:03:21.557Z,27.96
2018-08-06T12:04:21.543Z,28.16
2018-08-06T12:05:21.551Z,28.97
2018-08-06T12:06:21.550Z,27.01
2018-08-06T12:07:21.551Z,27.61
2018-08-06T12:08:21.624Z,27.89
2018-08-06T12:09:21.557Z,27.69
2018-08-06T12:10:21.564Z,28.51
2018-08-06T12:11:21.564Z,28.13
2018-08-06T12:12:21.561Z,28.34
2018-08-06T12:13:21.567Z,28.65
2018-08-06T12:14:21.583Z,28.05
2018-08-06T12:15:21.676Z,28.41
2018-08-06T12:16:21.572Z,28.42
2018-08-06T12:17:21.575Z,29.41
2018-08-06T12:18:21.596Z,29.33
2018-08-06T12:19:21.575Z,28.65
2018-08-06T12:20:21.595Z,28.47
2018-08-06T12:21:21.583Z,27.87
2018-08-06T12:22:21.615Z,25.39
2018-08-06T12:23:21.593Z,27.73
2018-08-06T12:24:21.614Z,28.00
2018-08-06T12:25:21.607Z,27.99
2018-08-06T12:26:21.628Z,29.19
2018-08-06T12:27:21.664Z,28.59
2018-08-06T12:28:21.598Z,27.41
2018-08-06T12:29:21.605Z,27.40
2018-08-06T12:30:21.624Z,27.68
2018-08-06T12:31:21.608Z,28.97
2018-08-06T12:32:21.609Z,28.50
2018-08-06T12:33:21.614Z,26.75
2018-08-06T12:34:21.614Z,29.03
2018-08-06T12:35:21.632Z,28.47
2018-08-06T12:36:21.642Z,28.66
2018-08-06T12:37:21.618Z,28.56
2018-08-06T12:38:21.627Z,27.94
2018-08-06T12:39:21.625Z,28.44
2018-08-06T12:40:21.647Z,27.24
2018-08-06T12:41:21.636Z,27.52
2018-08-06T12:42:21.630Z,25.33
2018-08-06T12:43:21.636Z,26.92
2018-08-06T12:44:21.637Z,28.11
2018-08-06T12:45:21.656Z,30.60
2018-08-06T12:46:21.706Z,26.06
2018-08-06T12:47:21.642Z,27.55
2018-08-06T12:48:21.650Z,26.76
2018-08-06T12:49:21.649Z,25.38
2018-08-06T12:50:21.650Z,26.56
2018-08-06T12:51:21.683Z,24.90
2018-08-06T12:52:21.656Z,27.36